sensor_id;sensor_type;location;lat;lon;timestamp;pressure;altitude;pressure_sealevel;temperature;humidity
11343;BME280;5726;42.160;24.746;2022-12-07T00:03:43;99766.22;;;9.21;100.00
11343;BME280;5726;42.160;24.746;2022-12-07T00:06:11;99769.13;;;9.39;100.00
11343;BME280;5726;42.160;24.746;2022-12-07T00:08:37;99772.53;;;9.54;100.00
11343;BME280;5726;42.160;24.746;2022-12-07T00:11:09;99782.63;;;9.67;100.00
11343;BME280;5726;42.160;24.746;2022-12-07T00:13:35;99771.63;;;9.74;100.00
11343;BME280;5726;42.160;24.746;2022-12-07T00:16:03;99769.66;;;9.36;100.00
11343;BME280;5726;42.160;24.746;2022-12-07T00:18:29;99771.88;;;9.14;100.00
11343;BME280;5726;42.160;24.746;2022-12-07T00:20:59;99771.31;;;9.27;100.00
11343;BME280;5726;42.160;24.746;2022-12-07T00:23:25;99774.81;;;9.18;100.00
11343;BME280;5726;42.160;24.746;2022-12-07T00:25:51;99767.88;;;9.12;100.00
11343;BME280;5726;42.160;24.746;2022-12-07T00:28:16;99773.50;;;9.05;100.00
11343;BME280;5726;42.160;24.746;2022-12-07T00:30:42;99770.88;;;9.01;100.00
11343;BME280;5726;42.160;24.746;2022-12-07T00:33:07;99775.06;;;9.26;100.00
11343;BME280;5726;42.160;24.746;2022-12-07T00:35:32;99770.00;;;9.15;100.00
11343;BME280;5726;42.160;24.746;2022-12-07T00:37:58;99772.41;;;9.21;100.00
11343;BME280;5726;42.160;24.746;2022-12-07T00:40:23;99767.41;;;8.85;100.00
11343;BME280;5726;42.160;24.746;2022-12-07T00:42:49;99769.78;;;8.97;100.00
11343;BME280;5726;42.160;24.746;2022-12-07T00:45:14;99775.19;;;8.77;100.00
11343;BME280;5726;42.160;24.746;2022-12-07T00:47:40;99768.72;;;8.93;100.00
11343;BME280;5726;42.160;24.746;2022-12-07T00:50:06;99765.47;;;9.10;100.00
11343;BME280;5726;42.160;24.746;2022-12-07T00:52:31;99762.81;;;9.05;100.00
11343;BME280;5726;42.160;24.746;2022-12-07T00:54:57;99761.78;;;8.87;100.00
11343;BME280;5726;42.160;24.746;2022-12-07T00:57:22;99758.59;;;8.75;100.00
11343;BME280;5726;42.160;24.746;2022-12-07T00:59:48;99760.19;;;8.91;100.00
11343;BME280;5726;42.160;24.746;2022-12-07T01:02:13;99761.22;;;9.09;100.00
11343;BME280;5726;42.160;24.746;2022-12-07T01:04:39;99767.41;;;8.85;100.00
11343;BME280;5726;42.160;24.746;2022-12-07T01:07:04;99753.53;;;8.78;100.00
11343;BME280;5726;42.160;24.746;2022-12-07T01:09:30;99757.56;;;8.71;100.00
11343;BME280;5726;42.160;24.746;2022-12-07T01:11:55;99759.94;;;8.77;100.00
11343;BME280;5726;42.160;24.746;2022-12-07T01:14:21;99763.38;;;8.93;100.00
11343;BME280;5726;42.160;24.746;2022-12-07T01:16:46;99749.25;;;8.87;100.00
11343;BME280;5726;42.160;24.746;2022-12-07T01:19:11;99748.41;;;8.87;100.00
11343;BME280;5726;42.160;24.746;2022-12-07T01:21:38;99750.00;;;8.98;100.00
11343;BME280;5726;42.160;24.746;2022-12-07T01:24:05;99745.69;;;9.02;100.00
11343;BME280;5726;42.160;24.746;2022-12-07T01:26:31;99755.88;;;9.00;100.00
11343;BME280;5726;42.160;24.746;2022-12-07T01:28:57;99750.97;;;9.26;100.00
11343;BME280;5726;42.160;24.746;2022-12-07T01:31:25;99747.19;;;9.32;100.00
11343;BME280;5726;42.160;24.746;2022-12-07T01:33:54;99744.78;;;9.31;100.00
11343;BME280;5726;42.160;24.746;2022-12-07T01:36:22;99744.50;;;9.37;100.00
11343;BME280;5726;42.160;24.746;2022-12-07T01:38:50;99731.16;;;9.32;100.00
11343;BME280;5726;42.160;24.746;2022-12-07T01:41:19;99741.22;;;9.50;100.00
11343;BME280;5726;42.160;24.746;2022-12-07T01:44:25;99732.16;;;9.41;100.00
11343;BME280;5726;42.160;24.746;2022-12-07T01:46:58;99725.59;;;9.19;100.00
11343;BME280;5726;42.160;24.746;2022-12-07T01:49:40;99718.16;;;9.01;100.00
11343;BME280;5726;42.160;24.746;2022-12-07T01:52:14;99716.09;;;9.46;100.00
11343;BME280;5726;42.160;24.746;2022-12-07T01:54:42;99718.66;;;9.61;100.00
11343;BME280;5726;42.160;24.746;2022-12-07T01:57:09;99730.59;;;9.35;100.00
11343;BME280;5726;42.160;24.746;2022-12-07T01:59:36;99726.91;;;9.26;100.00
11343;BME280;5726;42.160;24.746;2022-12-07T02:02:03;99731.00;;;9.62;100.00
11343;BME280;5726;42.160;24.746;2022-12-07T02:04:30;99728.56;;;9.12;100.00
11343;BME280;5726;42.160;24.746;2022-12-07T02:06:55;99728.56;;;9.12;100.00
11343;BME280;5726;42.160;24.746;2022-12-07T02:09:22;99720.66;;;8.83;100.00
11343;BME280;5726;42.160;24.746;2022-12-07T02:11:47;99714.16;;;8.99;100.00
11343;BME280;5726;42.160;24.746;2022-12-07T02:14:13;99718.97;;;9.02;100.00
11343;BME280;5726;42.160;24.746;2022-12-07T02:16:47;99720.72;;;9.31;100.00
11343;BME280;5726;42.160;24.746;2022-12-07T02:22:05;99710.97;;;8.97;100.00
11343;BME280;5726;42.160;24.746;2022-12-07T02:27:38;99703.47;;;8.99;100.00
11343;BME280;5726;42.160;24.746;2022-12-07T02:30:12;99702.88;;;9.11;100.00
11343;BME280;5726;42.160;24.746;2022-12-07T02:32:51;99698.59;;;9.15;100.00
11343;BME280;5726;42.160;24.746;2022-12-07T02:35:35;99696.44;;;9.65;100.00
11343;BME280;5726;42.160;24.746;2022-12-07T02:38:14;99699.19;;;9.03;100.00
11343;BME280;5726;42.160;24.746;2022-12-07T02:40:51;99697.28;;;9.08;100.00
11343;BME280;5726;42.160;24.746;2022-12-07T02:43:30;99704.06;;;8.81;100.00
11343;BME280;5726;42.160;24.746;2022-12-07T02:46:06;99700.34;;;8.77;100.00
11343;BME280;5726;42.160;24.746;2022-12-07T02:48:33;99687.34;;;9.18;100.00
11343;BME280;5726;42.160;24.746;2022-12-07T02:50:59;99688.69;;;9.16;100.00
11343;BME280;5726;42.160;24.746;2022-12-07T02:53:39;99690.63;;;9.01;100.00
11343;BME280;5726;42.160;24.746;2022-12-07T02:56:18;99685.78;;;9.07;100.00
11343;BME280;5726;42.160;24.746;2022-12-07T03:01:34;99669.34;;;9.34;100.00
11343;BME280;5726;42.160;24.746;2022-12-07T03:06:57;99666.00;;;9.08;100.00
11343;BME280;5726;42.160;24.746;2022-12-07T03:12:22;99674.88;;;8.99;100.00
11343;BME280;5726;42.160;24.746;2022-12-07T03:15:21;99680.00;;;8.86;100.00
11343;BME280;5726;42.160;24.746;2022-12-07T03:17:51;99687.41;;;9.04;100.00
11343;BME280;5726;42.160;24.746;2022-12-07T03:20:20;99693.56;;;9.04;100.00
11343;BME280;5726;42.160;24.746;2022-12-07T03:22:47;99692.16;;;9.21;100.00
11343;BME280;5726;42.160;24.746;2022-12-07T03:25:15;99680.09;;;9.24;100.00
11343;BME280;5726;42.160;24.746;2022-12-07T03:27:59;99693.25;;;9.10;100.00
11343;BME280;5726;42.160;24.746;2022-12-07T03:30:37;99686.84;;;9.11;100.00
11343;BME280;5726;42.160;24.746;2022-12-07T03:33:20;99685.97;;;9.21;100.00
11343;BME280;5726;42.160;24.746;2022-12-07T03:36:19;99680.94;;;9.14;100.00
11343;BME280;5726;42.160;24.746;2022-12-07T03:38:49;99682.06;;;8.99;100.00
11343;BME280;5726;42.160;24.746;2022-12-07T03:41:22;99686.81;;;9.21;100.00
11343;BME280;5726;42.160;24.746;2022-12-07T03:43:50;99688.97;;;9.14;100.00
11343;BME280;5726;42.160;24.746;2022-12-07T03:54:47;99673.53;;;9.50;100.00
11343;BME280;5726;42.160;24.746;2022-12-07T03:57:17;99675.00;;;9.27;100.00
11343;BME280;5726;42.160;24.746;2022-12-07T03:59:43;99676.28;;;9.35;100.00
11343;BME280;5726;42.160;24.746;2022-12-07T04:02:11;99673.69;;;9.15;100.00
11343;BME280;5726;42.160;24.746;2022-12-07T04:04:37;99669.69;;;9.17;100.00
11343;BME280;5726;42.160;24.746;2022-12-07T04:07:02;99669.34;;;9.34;100.00
11343;BME280;5726;42.160;24.746;2022-12-07T04:09:28;99663.13;;;9.43;100.00
11343;BME280;5726;42.160;24.746;2022-12-07T04:11:53;99670.22;;;9.62;100.00
11343;BME280;5726;42.160;24.746;2022-12-07T04:14:18;99672.81;;;9.34;100.00
11343;BME280;5726;42.160;24.746;2022-12-07T04:19:15;99672.84;;;9.29;100.00
11343;BME280;5726;42.160;24.746;2022-12-07T04:21:41;99665.66;;;8.62;100.00
11343;BME280;5726;42.160;24.746;2022-12-07T04:24:07;99666.44;;;8.62;100.00
11343;BME280;5726;42.160;24.746;2022-12-07T04:26:33;99659.75;;;8.65;100.00
11343;BME280;5726;42.160;24.746;2022-12-07T04:28:58;99664.25;;;8.74;100.00
11343;BME280;5726;42.160;24.746;2022-12-07T04:31:24;99664.75;;;8.86;100.00
11343;BME280;5726;42.160;24.746;2022-12-07T04:33:49;99662.72;;;9.16;100.00
11343;BME280;5726;42.160;24.746;2022-12-07T04:36:14;99665.41;;;9.16;100.00
11343;BME280;5726;42.160;24.746;2022-12-07T04:38:40;99654.19;;;9.14;100.00
11343;BME280;5726;42.160;24.746;2022-12-07T04:41:06;99660.75;;;8.89;100.00
11343;BME280;5726;42.160;24.746;2022-12-07T04:43:33;99668.22;;;8.92;100.00
11343;BME280;5726;42.160;24.746;2022-12-07T04:45:58;99668.16;;;9.02;100.00
11343;BME280;5726;42.160;24.746;2022-12-07T04:48:24;99665.91;;;9.23;100.00
11343;BME280;5726;42.160;24.746;2022-12-07T04:50:49;99655.72;;;9.30;100.00
11343;BME280;5726;42.160;24.746;2022-12-07T04:53:15;99654.94;;;9.25;100.00
11343;BME280;5726;42.160;24.746;2022-12-07T04:55:41;99663.19;;;9.33;100.00
11343;BME280;5726;42.160;24.746;2022-12-07T04:58:06;99665.88;;;9.33;100.00
11343;BME280;5726;42.160;24.746;2022-12-07T05:00:32;99664.16;;;9.47;100.00
11343;BME280;5726;42.160;24.746;2022-12-07T05:02:57;99672.31;;;9.22;100.00
11343;BME280;5726;42.160;24.746;2022-12-07T05:05:22;99677.25;;;9.05;100.00
11343;BME280;5726;42.160;24.746;2022-12-07T05:07:49;99672.47;;;8.98;100.00
11343;BME280;5726;42.160;24.746;2022-12-07T05:10:15;99668.81;;;8.69;100.00
11343;BME280;5726;42.160;24.746;2022-12-07T05:12:40;99675.16;;;8.93;100.00
11343;BME280;5726;42.160;24.746;2022-12-07T05:15:06;99677.81;;;8.98;100.00
11343;BME280;5726;42.160;24.746;2022-12-07T05:17:32;99674.19;;;8.54;100.00
11343;BME280;5726;42.160;24.746;2022-12-07T05:19:57;99667.34;;;8.13;100.00
11343;BME280;5726;42.160;24.746;2022-12-07T05:22:22;99667.06;;;8.25;100.00
11343;BME280;5726;42.160;24.746;2022-12-07T05:24:50;99673.19;;;8.15;100.00
11343;BME280;5726;42.160;24.746;2022-12-07T05:27:15;99665.72;;;8.03;100.00
11343;BME280;5726;42.160;24.746;2022-12-07T05:29:41;99668.94;;;8.14;100.00
11343;BME280;5726;42.160;24.746;2022-12-07T05:32:06;99664.63;;;8.43;100.00
11343;BME280;5726;42.160;24.746;2022-12-07T05:34:32;99681.69;;;8.52;100.00
11343;BME280;5726;42.160;24.746;2022-12-07T05:36:57;99687.81;;;8.62;100.00
11343;BME280;5726;42.160;24.746;2022-12-07T05:39:22;99686.22;;;8.57;100.00
11343;BME280;5726;42.160;24.746;2022-12-07T05:41:48;99681.66;;;8.67;100.00
11343;BME280;5726;42.160;24.746;2022-12-07T05:44:32;99680.06;;;8.71;100.00
11343;BME280;5726;42.160;24.746;2022-12-07T05:46:57;99684.81;;;8.89;100.00
11343;BME280;5726;42.160;24.746;2022-12-07T05:49:22;99676.75;;;8.94;100.00
11343;BME280;5726;42.160;24.746;2022-12-07T05:51:48;99682.06;;;8.99;100.00
11343;BME280;5726;42.160;24.746;2022-12-07T05:54:13;99682.72;;;8.71;100.00
11343;BME280;5726;42.160;24.746;2022-12-07T05:56:39;99679.47;;;8.79;100.00
11343;BME280;5726;42.160;24.746;2022-12-07T05:59:04;99678.19;;;8.66;100.00
11343;BME280;5726;42.160;24.746;2022-12-07T06:01:52;99679.94;;;8.96;100.00
11343;BME280;5726;42.160;24.746;2022-12-07T06:04:19;99682.81;;;9.09;100.00
11343;BME280;5726;42.160;24.746;2022-12-07T06:06:45;99683.41;;;9.54;100.00
11343;BME280;5726;42.160;24.746;2022-12-07T06:09:10;99682.38;;;9.45;100.00
11343;BME280;5726;42.160;24.746;2022-12-07T06:11:37;99684.78;;;9.47;100.00
11343;BME280;5726;42.160;24.746;2022-12-07T06:14:21;99688.88;;;9.29;100.00
11343;BME280;5726;42.160;24.746;2022-12-07T06:16:47;99697.78;;;9.20;100.00
11343;BME280;5726;42.160;24.746;2022-12-07T06:19:12;99692.69;;;9.18;100.00
11343;BME280;5726;42.160;24.746;2022-12-07T06:21:38;99683.69;;;9.00;100.00
11343;BME280;5726;42.160;24.746;2022-12-07T06:24:03;99685.84;;;8.98;100.00
11343;BME280;5726;42.160;24.746;2022-12-07T06:26:29;99695.41;;;9.08;100.00
11343;BME280;5726;42.160;24.746;2022-12-07T06:28:54;99695.59;;;9.70;100.00
11343;BME280;5726;42.160;24.746;2022-12-07T06:31:20;99684.47;;;9.91;100.00
11343;BME280;5726;42.160;24.746;2022-12-07T06:33:45;99693.75;;;9.65;100.00
11343;BME280;5726;42.160;24.746;2022-12-07T06:36:11;99690.00;;;9.23;100.00
11343;BME280;5726;42.160;24.746;2022-12-07T06:38:37;99690.75;;;9.34;100.00
11343;BME280;5726;42.160;24.746;2022-12-07T06:41:02;99699.69;;;9.09;100.00
11343;BME280;5726;42.160;24.746;2022-12-07T06:43:28;99700.44;;;9.20;100.00
11343;BME280;5726;42.160;24.746;2022-12-07T06:45:53;99696.44;;;9.17;100.00
11343;BME280;5726;42.160;24.746;2022-12-07T06:48:19;99695.84;;;9.30;100.00
11343;BME280;5726;42.160;24.746;2022-12-07T06:50:45;99699.28;;;9.36;100.00
11343;BME280;5726;42.160;24.746;2022-12-07T06:53:11;99704.16;;;9.72;100.00
11343;BME280;5726;42.160;24.746;2022-12-07T06:55:36;99698.19;;;9.42;100.00
11343;BME280;5726;42.160;24.746;2022-12-07T06:58:02;99699.00;;;9.42;100.00
11343;BME280;5726;42.160;24.746;2022-12-07T07:00:28;99697.34;;;9.51;100.00
11343;BME280;5726;42.160;24.746;2022-12-07T07:02:54;99700.94;;;9.70;100.00
11343;BME280;5726;42.160;24.746;2022-12-07T07:05:19;99695.63;;;9.65;100.00
11343;BME280;5726;42.160;24.746;2022-12-07T07:07:50;99700.25;;;9.54;100.00
11343;BME280;5726;42.160;24.746;2022-12-07T07:10:15;99698.31;;;9.65;100.00
11343;BME280;5726;42.160;24.746;2022-12-07T07:12:41;99673.78;;;9.86;100.00
11343;BME280;5726;42.160;24.746;2022-12-07T07:15:07;99682.00;;;10.04;100.00
11343;BME280;5726;42.160;24.746;2022-12-07T07:17:32;99690.03;;;10.00;100.00
11343;BME280;5726;42.160;24.746;2022-12-07T07:19:58;99689.53;;;9.54;100.00
11343;BME280;5726;42.160;24.746;2022-12-07T07:22:23;99691.44;;;9.54;100.00
11343;BME280;5726;42.160;24.746;2022-12-07T07:24:48;99699.66;;;9.62;100.00
11343;BME280;5726;42.160;24.746;2022-12-07T07:27:14;99698.81;;;9.72;100.00
11343;BME280;5726;42.160;24.746;2022-12-07T07:29:39;99690.41;;;9.83;100.00
11343;BME280;5726;42.160;24.746;2022-12-07T07:32:05;99687.91;;;10.02;100.00
11343;BME280;5726;42.160;24.746;2022-12-07T07:34:30;99685.41;;;10.10;100.00
11343;BME280;5726;42.160;24.746;2022-12-07T07:36:56;99687.25;;;10.14;100.00
11343;BME280;5726;42.160;24.746;2022-12-07T07:39:21;99688.56;;;10.45;100.00
11343;BME280;5726;42.160;24.746;2022-12-07T07:41:47;99698.94;;;10.23;100.00
11343;BME280;5726;42.160;24.746;2022-12-07T07:44:12;99702.97;;;10.26;100.00
11343;BME280;5726;42.160;24.746;2022-12-07T07:46:38;99711.56;;;10.23;100.00
11343;BME280;5726;42.160;24.746;2022-12-07T07:49:03;99709.63;;;10.28;100.00
11343;BME280;5726;42.160;24.746;2022-12-07T07:51:29;99708.59;;;10.24;100.00
11343;BME280;5726;42.160;24.746;2022-12-07T07:53:54;99713.63;;;10.31;100.00
11343;BME280;5726;42.160;24.746;2022-12-07T07:56:19;99707.28;;;10.50;100.00
11343;BME280;5726;42.160;24.746;2022-12-07T07:58:45;99708.97;;;10.93;100.00
11343;BME280;5726;42.160;24.746;2022-12-07T08:01:10;99707.50;;;10.53;100.00
11343;BME280;5726;42.160;24.746;2022-12-07T08:03:36;99708.91;;;10.46;100.00
11343;BME280;5726;42.160;24.746;2022-12-07T08:06:04;99708.81;;;10.56;100.00
11343;BME280;5726;42.160;24.746;2022-12-07T08:08:30;99700.69;;;10.66;100.00
11343;BME280;5726;42.160;24.746;2022-12-07T08:10:56;99709.66;;;10.80;100.00
11343;BME280;5726;42.160;24.746;2022-12-07T08:13:21;99707.06;;;10.70;100.00
11343;BME280;5726;42.160;24.746;2022-12-07T08:15:47;99706.97;;;11.03;100.00
11343;BME280;5726;42.160;24.746;2022-12-07T08:18:16;99704.56;;;11.01;100.00
11343;BME280;5726;42.160;24.746;2022-12-07T08:20:42;99707.06;;;11.16;100.00
11343;BME280;5726;42.160;24.746;2022-12-07T08:23:08;99697.59;;;11.42;100.00
11343;BME280;5726;42.160;24.746;2022-12-07T08:25:34;99709.34;;;11.88;100.00
11343;BME280;5726;42.160;24.746;2022-12-07T08:27:59;99704.94;;;11.92;100.00
11343;BME280;5726;42.160;24.746;2022-12-07T08:30:26;99702.63;;;12.03;100.00
11343;BME280;5726;42.160;24.746;2022-12-07T08:32:51;99704.81;;;12.01;100.00
11343;BME280;5726;42.160;24.746;2022-12-07T08:35:17;99700.53;;;12.32;100.00
11343;BME280;5726;42.160;24.746;2022-12-07T08:37:42;99704.47;;;12.21;100.00
11343;BME280;5726;42.160;24.746;2022-12-07T08:40:09;99708.75;;;12.54;100.00
11343;BME280;5726;42.160;24.746;2022-12-07T08:42:35;99707.03;;;12.89;100.00
11343;BME280;5726;42.160;24.746;2022-12-07T08:45:13;99703.06;;;12.87;100.00
11343;BME280;5726;42.160;24.746;2022-12-07T08:47:55;99701.88;;;13.06;100.00
11343;BME280;5726;42.160;24.746;2022-12-07T08:50:23;99689.66;;;13.22;100.00
11343;BME280;5726;42.160;24.746;2022-12-07T08:52:51;99686.44;;;13.47;100.00
11343;BME280;5726;42.160;24.746;2022-12-07T08:55:18;99692.59;;;13.61;100.00
11343;BME280;5726;42.160;24.746;2022-12-07T08:57:44;99694.38;;;13.65;100.00
11343;BME280;5726;42.160;24.746;2022-12-07T09:00:11;99690.88;;;13.65;100.00
11343;BME280;5726;42.160;24.746;2022-12-07T09:02:37;99686.00;;;13.67;100.00
11343;BME280;5726;42.160;24.746;2022-12-07T09:05:03;99675.97;;;13.81;100.00
11343;BME280;5726;42.160;24.746;2022-12-07T09:07:29;99678.31;;;13.95;100.00
11343;BME280;5726;42.160;24.746;2022-12-07T09:09:55;99670.44;;;13.64;100.00
11343;BME280;5726;42.160;24.746;2022-12-07T09:12:21;99660.72;;;13.76;100.00
11343;BME280;5726;42.160;24.746;2022-12-07T09:14:46;99652.22;;;14.04;100.00
11343;BME280;5726;42.160;24.746;2022-12-07T09:17:12;99652.72;;;14.06;100.00
11343;BME280;5726;42.160;24.746;2022-12-07T09:19:38;99644.50;;;14.11;100.00
11343;BME280;5726;42.160;24.746;2022-12-07T09:22:04;99641.16;;;14.06;100.00
11343;BME280;5726;42.160;24.746;2022-12-07T09:24:30;99634.44;;;13.82;100.00
11343;BME280;5726;42.160;24.746;2022-12-07T09:26:57;99646.88;;;13.69;100.00
11343;BME280;5726;42.160;24.746;2022-12-07T09:29:22;99638.34;;;13.54;100.00
11343;BME280;5726;42.160;24.746;2022-12-07T09:31:48;99630.19;;;13.45;100.00
11343;BME280;5726;42.160;24.746;2022-12-07T09:34:14;99624.88;;;13.76;100.00
11343;BME280;5726;42.160;24.746;2022-12-07T09:36:39;99627.94;;;13.61;100.00
11343;BME280;5726;42.160;24.746;2022-12-07T09:39:04;99619.38;;;13.81;100.00
11343;BME280;5726;42.160;24.746;2022-12-07T09:41:31;99613.97;;;14.02;100.00
11343;BME280;5726;42.160;24.746;2022-12-07T09:44:10;99614.59;;;13.78;100.00
11343;BME280;5726;42.160;24.746;2022-12-07T09:46:39;99617.41;;;13.51;100.00
11343;BME280;5726;42.160;24.746;2022-12-07T09:49:05;99615.31;;;13.48;100.00
11343;BME280;5726;42.160;24.746;2022-12-07T09:51:36;99596.59;;;13.65;100.00
11343;BME280;5726;42.160;24.746;2022-12-07T09:54:02;99595.06;;;13.94;100.00
11343;BME280;5726;42.160;24.746;2022-12-07T09:56:30;99605.28;;;13.62;100.00
11343;BME280;5726;42.160;24.746;2022-12-07T09:59:02;99593.50;;;13.58;100.00
11343;BME280;5726;42.160;24.746;2022-12-07T10:01:31;99591.94;;;13.57;100.00
11343;BME280;5726;42.160;24.746;2022-12-07T10:04:15;99596.16;;;13.71;100.00
11343;BME280;5726;42.160;24.746;2022-12-07T10:06:41;99596.09;;;13.84;100.00
11343;BME280;5726;42.160;24.746;2022-12-07T10:09:15;99591.00;;;13.83;100.00
11343;BME280;5726;42.160;24.746;2022-12-07T10:12:01;99595.69;;;13.91;100.00
11343;BME280;5726;42.160;24.746;2022-12-07T10:14:29;99589.00;;;14.10;100.00
11343;BME280;5726;42.160;24.746;2022-12-07T10:16:55;99583.03;;;14.00;100.00
11343;BME280;5726;42.160;24.746;2022-12-07T10:19:31;99584.81;;;14.04;100.00
11343;BME280;5726;42.160;24.746;2022-12-07T10:22:12;99575.34;;;14.37;100.00
11343;BME280;5726;42.160;24.746;2022-12-07T10:24:39;99577.06;;;14.33;100.00
11343;BME280;5726;42.160;24.746;2022-12-07T10:29:48;99560.97;;;13.98;100.00
11343;BME280;5726;42.160;24.746;2022-12-07T10:34:40;99558.63;;;13.53;100.00
11343;BME280;5726;42.160;24.746;2022-12-07T10:42:27;99563.16;;;13.66;100.00
11343;BME280;5726;42.160;24.746;2022-12-07T10:45:26;99564.84;;;14.05;100.00
11343;BME280;5726;42.160;24.746;2022-12-07T10:48:12;99560.66;;;13.99;100.00
11343;BME280;5726;42.160;24.746;2022-12-07T10:53:23;99563.34;;;13.99;100.00
11343;BME280;5726;42.160;24.746;2022-12-07T11:01:56;99553.44;;;14.08;100.00
11343;BME280;5726;42.160;24.746;2022-12-07T11:10:22;99537.53;;;13.98;100.00
11343;BME280;5726;42.160;24.746;2022-12-07T11:24:24;99526.75;;;13.98;100.00
11343;BME280;5726;42.160;24.746;2022-12-07T11:35:53;99512.94;;;14.30;100.00
11343;BME280;5726;42.160;24.746;2022-12-07T11:38:16;99504.19;;;13.94;100.00
11343;BME280;5726;42.160;24.746;2022-12-07T11:40:48;99506.03;;;14.07;100.00
11343;BME280;5726;42.160;24.746;2022-12-07T11:43:34;99507.13;;;14.06;100.00
11343;BME280;5726;42.160;24.746;2022-12-07T11:46:08;99509.22;;;13.87;100.00
11343;BME280;5726;42.160;24.746;2022-12-07T11:51:16;99495.34;;;14.02;100.00
11343;BME280;5726;42.160;24.746;2022-12-07T11:53:52;99487.16;;;14.07;100.00
11343;BME280;5726;42.160;24.746;2022-12-07T11:56:21;99487.94;;;14.08;100.00
11343;BME280;5726;42.160;24.746;2022-12-07T12:03:53;99481.94;;;13.81;100.00
11343;BME280;5726;42.160;24.746;2022-12-07T12:06:21;99479.94;;;13.94;100.00
11343;BME280;5726;42.160;24.746;2022-12-07T12:17:00;99474.84;;;13.93;100.00
11343;BME280;5726;42.160;24.746;2022-12-07T12:19:38;99473.34;;;13.79;100.00
11343;BME280;5726;42.160;24.746;2022-12-07T12:22:19;99476.09;;;13.87;100.00
11343;BME280;5726;42.160;24.746;2022-12-07T12:24:53;99459.41;;;13.77;100.00
11343;BME280;5726;42.160;24.746;2022-12-07T12:27:27;99466.50;;;13.73;100.00
11343;BME280;5726;42.160;24.746;2022-12-07T12:29:58;99468.13;;;13.52;100.00
11343;BME280;5726;42.160;24.746;2022-12-07T12:32:37;99462.34;;;13.67;100.00
11343;BME280;5726;42.160;24.746;2022-12-07T12:35:33;99456.25;;;13.83;100.00
11343;BME280;5726;42.160;24.746;2022-12-07T12:38:32;99452.50;;;13.92;100.00
11343;BME280;5726;42.160;24.746;2022-12-07T12:41:02;99445.25;;;13.63;100.00
11343;BME280;5726;42.160;24.746;2022-12-07T12:43:46;99435.78;;;13.74;100.00
11343;BME280;5726;42.160;24.746;2022-12-07T12:49:06;99438.94;;;13.76;100.00
11343;BME280;5726;42.160;24.746;2022-12-07T12:51:44;99435.09;;;13.60;100.00
11343;BME280;5726;42.160;24.746;2022-12-07T12:57:07;99444.53;;;13.79;100.00
11343;BME280;5726;42.160;24.746;2022-12-07T13:15:53;99425.63;;;13.19;100.00
11343;BME280;5726;42.160;24.746;2022-12-07T13:18:35;99423.47;;;13.51;100.00
11343;BME280;5726;42.160;24.746;2022-12-07T13:31:49;99439.94;;;13.28;100.00
11343;BME280;5726;42.160;24.746;2022-12-07T13:39:34;99436.59;;;13.22;100.00
11343;BME280;5726;42.160;24.746;2022-12-07T13:42:11;99433.41;;;13.42;100.00
11343;BME280;5726;42.160;24.746;2022-12-07T13:44:40;99432.78;;;13.23;100.00
11343;BME280;5726;42.160;24.746;2022-12-07T13:47:14;99435.84;;;13.30;100.00
11343;BME280;5726;42.160;24.746;2022-12-07T13:49:50;99445.41;;;13.36;100.00
11343;BME280;5726;42.160;24.746;2022-12-07T13:52:24;99443.66;;;13.40;100.00
11343;BME280;5726;42.160;24.746;2022-12-07T13:55:13;99439.41;;;13.39;100.00
11343;BME280;5726;42.160;24.746;2022-12-07T13:57:39;99443.03;;;13.43;100.00
11343;BME280;5726;42.160;24.746;2022-12-07T14:00:14;99434.84;;;13.48;100.00
11343;BME280;5726;42.160;24.746;2022-12-07T14:03:02;99448.19;;;13.53;100.00
11343;BME280;5726;42.160;24.746;2022-12-07T14:05:33;99442.88;;;13.70;100.00
11343;BME280;5726;42.160;24.746;2022-12-07T14:08:00;99432.50;;;13.55;100.00
11343;BME280;5726;42.160;24.746;2022-12-07T14:10:38;99439.97;;;13.58;100.00
11343;BME280;5726;42.160;24.746;2022-12-07T14:16:00;99450.13;;;13.61;100.00
11343;BME280;5726;42.160;24.746;2022-12-07T14:18:36;99440.63;;;13.33;100.00
11343;BME280;5726;42.160;24.746;2022-12-07T14:23:32;99447.19;;;13.49;100.00
11343;BME280;5726;42.160;24.746;2022-12-07T14:26:11;99441.97;;;13.22;100.00
11343;BME280;5726;42.160;24.746;2022-12-07T14:28:38;99438.78;;;12.98;100.00
11343;BME280;5726;42.160;24.746;2022-12-07T14:31:13;99436.59;;;13.22;100.00
11343;BME280;5726;42.160;24.746;2022-12-07T14:33:40;99434.56;;;13.28;100.00
11343;BME280;5726;42.160;24.746;2022-12-07T14:36:08;99436.94;;;13.29;100.00
11343;BME280;5726;42.160;24.746;2022-12-07T14:38:34;99441.19;;;13.22;100.00
11343;BME280;5726;42.160;24.746;2022-12-07T14:41:00;99438.34;;;13.27;100.00
11343;BME280;5726;42.160;24.746;2022-12-07T14:43:44;99447.34;;;13.22;100.00
11343;BME280;5726;42.160;24.746;2022-12-07T14:46:09;99447.56;;;13.26;100.00
11343;BME280;5726;42.160;24.746;2022-12-07T14:48:34;99442.50;;;13.33;100.00
11343;BME280;5726;42.160;24.746;2022-12-07T14:51:00;99439.50;;;13.34;100.00
11343;BME280;5726;42.160;24.746;2022-12-07T14:53:30;99435.41;;;13.15;100.00
11343;BME280;5726;42.160;24.746;2022-12-07T14:55:57;99442.34;;;13.07;100.00
11343;BME280;5726;42.160;24.746;2022-12-07T14:58:22;99440.81;;;13.15;100.00
11343;BME280;5726;42.160;24.746;2022-12-07T15:00:48;99436.88;;;13.21;100.00
11343;BME280;5726;42.160;24.746;2022-12-07T15:03:13;99432.19;;;13.26;100.00
11343;BME280;5726;42.160;24.746;2022-12-07T15:05:40;99441.78;;;13.19;100.00
11343;BME280;5726;42.160;24.746;2022-12-07T15:08:06;99431.19;;;13.22;100.00
11343;BME280;5726;42.160;24.746;2022-12-07T15:10:33;99431.56;;;13.29;100.00
11343;BME280;5726;42.160;24.746;2022-12-07T15:13:00;99429.00;;;13.24;100.00
11343;BME280;5726;42.160;24.746;2022-12-07T15:15:47;99429.81;;;13.93;100.00
11343;BME280;5726;42.160;24.746;2022-12-07T15:18:12;99426.69;;;14.81;100.00